createdAt,value
2023-01-21T00:01:29.329Z,0.60
2023-01-21T00:03:58.128Z,0.90
2023-01-21T00:06:27.601Z,0.87
2023-01-21T00:09:00.943Z,1.25
2023-01-21T00:11:29.706Z,0.70
2023-01-21T00:14:00.120Z,0.75
2023-01-21T00:16:28.821Z,0.95
2023-01-21T00:18:57.577Z,1.15
2023-01-21T00:21:28.536Z,0.93
2023-01-21T00:23:59.742Z,1.52
2023-01-21T00:26:28.366Z,0.95
2023-01-21T00:28:57.453Z,1.52
2023-01-21T00:31:26.230Z,1.73
2023-01-21T00:33:54.712Z,1.23
2023-01-21T00:36:25.066Z,0.98
2023-01-21T00:38:53.554Z,1.15
2023-01-21T00:41:24.756Z,1.30
2023-01-21T00:43:54.047Z,1.35
2023-01-21T00:46:22.559Z,0.82
2023-01-21T00:48:51.812Z,1.65
2023-01-21T00:51:20.154Z,1.00
2023-01-21T00:53:49.690Z,1.25
2023-01-21T00:56:31.306Z,1.05
2023-01-21T00:59:01.776Z,1.33
2023-01-21T01:01:34.507Z,1.48
2023-01-21T01:04:02.947Z,2.15
2023-01-21T01:06:31.169Z,1.85
2023-01-21T01:09:00.026Z,1.85
2023-01-21T01:11:30.653Z,2.15
2023-01-21T01:14:02.691Z,2.47
2023-01-21T01:16:32.782Z,1.90
2023-01-21T01:19:01.215Z,2.53
2023-01-21T01:21:29.388Z,1.85
2023-01-21T01:24:05.879Z,1.90
2023-01-21T01:26:35.672Z,2.55
2023-01-21T01:29:06.032Z,2.10
2023-01-21T01:31:34.887Z,1.75
2023-01-21T01:34:03.325Z,1.90
2023-01-21T01:36:34.129Z,1.65
2023-01-21T01:39:04.543Z,2.03
2023-01-21T01:41:35.259Z,1.95
2023-01-21T01:44:07.588Z,2.55
2023-01-21T01:46:39.374Z,2.38
2023-01-21T01:49:13.524Z,2.78
2023-01-21T01:51:47.628Z,3.08
2023-01-21T01:54:21.360Z,3.70
2023-01-21T01:56:53.305Z,4.45
2023-01-21T01:59:23.216Z,3.05
2023-01-21T02:01:52.419Z,4.13
2023-01-21T02:04:25.034Z,4.20
2023-01-21T02:06:56.161Z,4.68
2023-01-21T02:09:29.685Z,3.97
2023-01-21T02:11:59.366Z,5.30
2023-01-21T02:14:29.592Z,4.30
2023-01-21T02:17:14.460Z,4.72
2023-01-21T02:19:57.296Z,4.78
2023-01-21T02:22:30.516Z,4.38
2023-01-21T02:25:41.486Z,4.43
2023-01-21T02:28:32.801Z,4.25
2023-01-21T02:31:21.030Z,5.25
2023-01-21T02:34:14.922Z,4.00
2023-01-21T02:36:55.850Z,3.67
2023-01-21T02:39:33.041Z,3.75
2023-01-21T02:42:06.753Z,4.35
2023-01-21T02:44:41.680Z,3.25
2023-01-21T02:47:25.304Z,3.85
2023-01-21T02:49:59.227Z,4.35
2023-01-21T02:52:28.253Z,4.75
2023-01-21T02:54:59.023Z,4.55
2023-01-21T02:57:38.058Z,3.78
2023-01-21T03:00:12.053Z,3.90
2023-01-21T03:02:58.830Z,4.35
2023-01-21T03:05:42.395Z,4.45
2023-01-21T03:08:17.793Z,4.53
2023-01-21T03:10:56.288Z,3.90
2023-01-21T03:13:52.061Z,5.15
2023-01-21T03:16:43.064Z,4.63
2023-01-21T03:19:15.764Z,5.93
2023-01-21T03:21:47.155Z,4.70
2023-01-21T03:24:15.956Z,6.43
2023-01-21T03:26:51.167Z,4.93
2023-01-21T03:29:27.788Z,5.82
2023-01-21T03:32:01.909Z,4.88
2023-01-21T03:34:34.155Z,4.50
2023-01-21T03:37:08.649Z,4.95
2023-01-21T03:39:46.937Z,5.68
2023-01-21T03:42:16.469Z,5.90
2023-01-21T03:44:45.150Z,5.15
2023-01-21T03:47:21.973Z,4.53
2023-01-21T03:49:54.826Z,3.85
2023-01-21T03:52:26.349Z,4.88
2023-01-21T03:54:55.050Z,5.43
2023-01-21T03:57:23.436Z,4.80
2023-01-21T03:59:52.095Z,4.05
2023-01-21T04:02:22.727Z,5.20
2023-01-21T04:07:24.645Z,4.18
2023-01-21T04:09:53.171Z,3.78
2023-01-21T04:12:21.978Z,3.72
2023-01-21T04:14:50.575Z,3.08
2023-01-21T04:17:20.591Z,3.87
2023-01-21T04:19:49.815Z,3.63
2023-01-21T04:22:18.297Z,4.32
2023-01-21T04:24:48.060Z,4.50
2023-01-21T04:27:16.536Z,3.15
2023-01-21T04:29:44.795Z,3.85
2023-01-21T04:32:13.221Z,3.33
2023-01-21T04:34:42.576Z,4.00
2023-01-21T04:37:10.829Z,4.00
2023-01-21T04:39:39.438Z,4.05
2023-01-21T04:42:09.054Z,3.70
2023-01-21T04:44:37.903Z,4.03
2023-01-21T04:47:06.738Z,4.95
2023-01-21T04:49:35.671Z,3.72
2023-01-21T04:52:03.879Z,3.27
2023-01-21T04:54:32.910Z,4.22
2023-01-21T04:57:01.235Z,3.38
2023-01-21T04:59:31.330Z,4.18
2023-01-21T05:01:59.865Z,3.33
2023-01-21T05:04:39.241Z,3.10
2023-01-21T05:07:08.454Z,4.18
2023-01-21T05:09:37.028Z,3.30
2023-01-21T05:12:05.823Z,4.10
2023-01-21T05:14:37.452Z,4.43
2023-01-21T05:17:05.975Z,3.97
2023-01-21T05:19:34.535Z,4.38
2023-01-21T05:22:03.280Z,4.80
2023-01-21T05:24:32.336Z,3.47
2023-01-21T05:27:01.741Z,3.22
2023-01-21T05:29:30.725Z,2.67
2023-01-21T05:32:00.925Z,2.75
2023-01-21T05:34:29.244Z,3.03
2023-01-21T05:36:58.128Z,2.97
2023-01-21T05:39:27.123Z,2.35
2023-01-21T05:41:55.810Z,2.97
2023-01-21T05:44:24.573Z,2.80
2023-01-21T05:46:55.913Z,2.47
2023-01-21T05:49:26.877Z,3.38
2023-01-21T05:51:55.241Z,3.67
2023-01-21T05:54:24.565Z,3.25
2023-01-21T05:56:54.538Z,3.17
2023-01-21T05:59:22.739Z,2.65
2023-01-21T06:01:53.185Z,3.85
2023-01-21T06:04:23.921Z,3.70
2023-01-21T06:06:53.721Z,3.58
2023-01-21T06:09:23.332Z,3.22
2023-01-21T06:11:51.548Z,3.50
2023-01-21T06:14:19.831Z,2.58
2023-01-21T06:16:48.396Z,3.42
2023-01-21T06:19:16.963Z,4.22
2023-01-21T06:21:48.312Z,2.78
2023-01-21T06:24:18.064Z,4.05
2023-01-21T06:26:46.789Z,5.05
2023-01-21T06:29:15.517Z,4.88
2023-01-21T06:31:45.892Z,4.68
2023-01-21T06:34:14.422Z,4.25
2023-01-21T06:36:44.449Z,5.05
2023-01-21T06:39:13.164Z,5.57
2023-01-21T06:41:42.833Z,3.83
2023-01-21T06:46:43.332Z,4.57
2023-01-21T06:49:16.169Z,4.72
2023-01-21T06:51:44.725Z,5.07
2023-01-21T06:54:14.019Z,5.20
2023-01-21T06:56:46.287Z,4.75
2023-01-21T06:59:14.764Z,5.15
2023-01-21T07:01:43.032Z,5.50
2023-01-21T07:04:12.519Z,4.50
2023-01-21T07:06:41.137Z,6.15
2023-01-21T07:09:09.847Z,4.10
2023-01-21T07:11:39.682Z,4.00
2023-01-21T07:14:09.825Z,4.88
2023-01-21T07:16:38.109Z,4.25
2023-01-21T07:19:06.838Z,3.80
2023-01-21T07:21:35.023Z,4.75
2023-01-21T07:24:03.478Z,5.32
2023-01-21T07:26:36.112Z,5.72
2023-01-21T07:29:07.774Z,3.72
2023-01-21T07:31:42.991Z,4.43
2023-01-21T07:34:11.453Z,5.38
2023-01-21T07:36:42.184Z,4.55
2023-01-21T07:39:14.008Z,6.45
2023-01-21T07:41:46.643Z,6.32
2023-01-21T07:44:23.862Z,6.85
2023-01-21T07:46:55.672Z,6.63
2023-01-21T07:49:25.383Z,6.30
2023-01-21T07:51:58.718Z,3.22
2023-01-21T07:54:27.379Z,6.10
2023-01-21T07:56:56.041Z,3.72
2023-01-21T07:59:26.693Z,4.22
2023-01-21T08:01:57.948Z,4.55
2023-01-21T08:04:26.484Z,4.07
2023-01-21T08:06:56.952Z,4.72
2023-01-21T08:09:27.258Z,4.63
2023-01-21T08:11:57.729Z,6.68
2023-01-21T08:14:27.237Z,5.43
2023-01-21T08:16:59.363Z,6.40
2023-01-21T08:19:33.311Z,4.90
2023-01-21T08:22:05.623Z,5.80
2023-01-21T08:24:35.272Z,4.88
2023-01-21T08:29:31.755Z,4.57
2023-01-21T08:32:01.747Z,4.63
2023-01-21T08:34:31.245Z,5.53
2023-01-21T08:36:59.810Z,5.80
2023-01-21T08:39:31.399Z,4.82
2023-01-21T08:41:59.630Z,7.90
2023-01-21T08:44:28.066Z,5.95
2023-01-21T08:46:58.684Z,9.85
2023-01-21T08:49:28.499Z,10.07
2023-01-21T08:51:57.225Z,7.60
2023-01-21T08:54:27.480Z,6.57
2023-01-21T08:56:56.026Z,6.57
2023-01-21T08:59:28.645Z,6.38
2023-01-21T09:01:57.667Z,5.90
2023-01-21T09:04:27.997Z,6.00
2023-01-21T09:06:58.715Z,6.68
2023-01-21T09:09:28.191Z,5.50
2023-01-21T09:11:56.479Z,4.97
2023-01-21T09:14:24.854Z,6.28
2023-01-21T09:16:55.861Z,5.53
2023-01-21T09:19:33.916Z,5.97
2023-01-21T09:22:03.979Z,7.57
2023-01-21T09:24:33.081Z,6.10
2023-01-21T09:27:01.791Z,6.07
2023-01-21T09:29:30.198Z,6.37
2023-01-21T09:31:58.911Z,6.47
2023-01-21T09:34:28.029Z,5.28
2023-01-21T09:36:57.954Z,6.90
2023-01-21T09:39:27.990Z,7.20
2023-01-21T09:41:58.678Z,6.60
2023-01-21T09:44:32.645Z,5.95
2023-01-21T09:47:05.829Z,4.75
2023-01-21T09:49:39.348Z,6.35
2023-01-21T09:52:15.991Z,6.88
2023-01-21T09:54:46.617Z,5.95
2023-01-21T09:57:36.480Z,5.80
2023-01-21T10:00:31.368Z,4.60
2023-01-21T10:03:17.135Z,6.05
2023-01-21T10:05:59.417Z,4.88
2023-01-21T10:08:36.476Z,5.95
2023-01-21T10:11:30.007Z,5.22
2023-01-21T10:14:31.009Z,4.63
2023-01-21T10:17:07.816Z,5.20
2023-01-21T10:19:44.385Z,4.18
2023-01-21T10:22:15.608Z,5.88
2023-01-21T10:24:59.225Z,3.83
2023-01-21T10:27:32.167Z,6.18
2023-01-21T10:30:09.748Z,6.32
2023-01-21T10:32:40.643Z,6.47
2023-01-21T10:35:20.666Z,5.45
2023-01-21T10:37:58.071Z,4.65
2023-01-21T10:40:45.029Z,5.78
2023-01-21T10:43:22.476Z,6.35
2023-01-21T10:46:01.537Z,5.15
2023-01-21T10:48:38.910Z,5.22
2023-01-21T10:51:14.687Z,5.28
2023-01-21T10:53:50.044Z,4.10
2023-01-21T10:56:29.240Z,4.60
2023-01-21T10:59:05.192Z,4.43
2023-01-21T11:01:37.554Z,4.97
2023-01-21T11:04:11.835Z,5.28
2023-01-21T11:06:41.371Z,4.55
2023-01-21T11:09:17.438Z,4.18
2023-01-21T11:11:46.493Z,5.50
2023-01-21T11:14:16.613Z,4.15
2023-01-21T11:16:48.504Z,5.30
2023-01-21T11:19:22.912Z,5.57
2023-01-21T11:22:04.052Z,5.00
2023-01-21T11:24:42.488Z,4.30
2023-01-21T11:27:20.523Z,5.63
2023-01-21T11:29:51.625Z,5.25
2023-01-21T11:32:22.721Z,5.60
2023-01-21T11:34:53.645Z,4.07
2023-01-21T11:37:38.936Z,4.30
2023-01-21T11:40:14.395Z,3.92
2023-01-21T11:42:49.005Z,5.20
2023-01-21T11:45:32.670Z,3.95
2023-01-21T11:48:03.517Z,4.43
2023-01-21T11:50:35.680Z,3.45
2023-01-21T11:53:15.132Z,3.85
2023-01-21T11:58:26.041Z,3.95
2023-01-21T12:00:59.041Z,3.17
2023-01-21T12:03:31.863Z,4.68
2023-01-21T12:06:02.216Z,3.85
2023-01-21T12:08:38.045Z,4.30
2023-01-21T12:11:09.277Z,4.70
2023-01-21T12:13:48.069Z,3.97
2023-01-21T12:16:31.783Z,4.22
2023-01-21T12:19:20.650Z,4.63
2023-01-21T12:22:07.150Z,3.13
2023-01-21T12:24:52.562Z,3.42
2023-01-21T12:27:31.929Z,3.58
2023-01-21T12:30:13.929Z,3.38
2023-01-21T12:32:50.497Z,3.80
2023-01-21T12:35:31.515Z,2.40
2023-01-21T12:38:06.269Z,2.63
2023-01-21T12:40:39.627Z,3.22
2023-01-21T12:43:19.203Z,3.28
2023-01-21T12:46:00.338Z,3.50
2023-01-21T12:48:38.093Z,3.88
2023-01-21T12:51:11.544Z,2.85
2023-01-21T12:53:47.704Z,3.03
2023-01-21T12:56:27.797Z,3.63
2023-01-21T12:59:01.790Z,3.28
2023-01-21T13:01:48.118Z,3.55
2023-01-21T13:04:40.421Z,3.78
2023-01-21T13:07:24.571Z,3.90
2023-01-21T13:10:13.407Z,3.53
2023-01-21T13:12:50.329Z,4.30
2023-01-21T13:15:26.462Z,3.28
2023-01-21T13:18:07.464Z,3.97
2023-01-21T13:20:44.604Z,4.15
2023-01-21T13:23:23.276Z,3.63
2023-01-21T13:26:01.283Z,3.65
2023-01-21T13:28:37.051Z,3.47
2023-01-21T13:31:18.691Z,3.15
2023-01-21T13:34:00.307Z,3.95
2023-01-21T13:36:46.483Z,3.70
2023-01-21T13:39:28.171Z,3.22
2023-01-21T13:42:23.573Z,3.00
2023-01-21T13:45:22.028Z,4.10
2023-01-21T13:48:19.258Z,2.43
2023-01-21T13:51:11.515Z,2.78
2023-01-21T13:54:11.849Z,3.28
2023-01-21T13:57:04.971Z,4.05
2023-01-21T13:59:43.802Z,4.15
2023-01-21T14:02:20.535Z,3.30
2023-01-21T14:04:55.626Z,3.53
2023-01-21T14:07:33.295Z,3.10
2023-01-21T14:10:24.007Z,3.03
2023-01-21T14:13:34.506Z,3.67
2023-01-21T14:16:20.668Z,2.28
2023-01-21T14:19:08.626Z,3.33
2023-01-21T14:21:49.617Z,2.55
2023-01-21T14:24:32.923Z,2.97
2023-01-21T14:27:15.455Z,2.10
2023-01-21T14:29:48.932Z,2.78
2023-01-21T14:32:23.354Z,2.90
2023-01-21T14:35:05.337Z,2.47
2023-01-21T14:37:44.044Z,2.45
2023-01-21T14:40:22.594Z,1.85
2023-01-21T14:43:10.481Z,1.98
2023-01-21T14:45:57.918Z,2.15
2023-01-21T14:48:36.476Z,1.67
2023-01-21T14:54:01.356Z,3.92
2023-01-21T14:56:35.057Z,2.60
2023-01-21T14:59:33.182Z,2.55
2023-01-21T15:02:21.455Z,2.28
2023-01-21T15:04:55.609Z,3.42
2023-01-21T15:07:29.827Z,3.05
2023-01-21T15:10:02.056Z,2.50
2023-01-21T15:12:35.479Z,2.45
2023-01-21T15:15:29.609Z,3.53
2023-01-21T15:18:24.500Z,2.13
2023-01-21T15:20:58.083Z,2.88
2023-01-21T15:23:43.894Z,2.80
2023-01-21T15:26:38.958Z,2.28
2023-01-21T15:29:36.951Z,2.47
2023-01-21T15:32:30.568Z,2.17
2023-01-21T15:35:03.337Z,3.45
2023-01-21T15:37:34.202Z,2.45
2023-01-21T15:40:13.630Z,3.08
2023-01-21T15:42:51.018Z,2.67
2023-01-21T15:45:29.123Z,1.85
2023-01-21T15:48:25.348Z,2.75
2023-01-21T15:51:04.488Z,2.35
2023-01-21T15:53:50.022Z,4.38
2023-01-21T15:56:37.729Z,3.53
2023-01-21T15:59:30.024Z,2.65
2023-01-21T16:02:24.544Z,2.72
2023-01-21T16:05:11.882Z,3.00
2023-01-21T16:07:54.583Z,3.30
2023-01-21T16:10:42.282Z,2.78
2023-01-21T16:13:24.338Z,2.97
2023-01-21T16:16:10.525Z,2.90
2023-01-21T16:18:52.463Z,3.15
2023-01-21T16:21:26.802Z,3.75
2023-01-21T16:23:59.401Z,2.88
2023-01-21T16:26:31.851Z,3.30
2023-01-21T16:29:04.118Z,2.42
2023-01-21T16:31:46.071Z,2.28
2023-01-21T16:34:15.327Z,2.88
2023-01-21T16:36:50.670Z,2.92
2023-01-21T16:39:20.602Z,3.35
2023-01-21T16:42:01.791Z,2.88
2023-01-21T16:44:34.850Z,4.15
2023-01-21T16:47:10.615Z,4.18
2023-01-21T16:49:43.462Z,3.22
2023-01-21T16:52:25.614Z,2.25
2023-01-21T16:54:57.681Z,2.60
2023-01-21T16:57:31.542Z,2.22
2023-01-21T17:00:27.247Z,2.55
2023-01-21T17:02:56.967Z,1.88
2023-01-21T17:05:28.179Z,2.35
2023-01-21T17:08:05.158Z,3.38
2023-01-21T17:10:37.753Z,2.08
2023-01-21T17:13:10.647Z,2.38
2023-01-21T17:15:43.505Z,2.55
2023-01-21T17:18:22.355Z,2.55
2023-01-21T17:21:04.549Z,2.73
2023-01-21T17:23:40.002Z,2.13
2023-01-21T17:26:16.737Z,2.17
2023-01-21T17:28:47.688Z,3.58
2023-01-21T17:31:29.024Z,2.22
2023-01-21T17:34:04.851Z,2.60
2023-01-21T17:36:36.402Z,3.03
2023-01-21T17:39:12.774Z,2.42
2023-01-21T17:41:46.501Z,2.03
2023-01-21T17:44:23.196Z,1.98
2023-01-21T17:46:54.523Z,2.70
2023-01-21T17:49:29.837Z,2.20
2023-01-21T17:51:58.646Z,2.60
2023-01-21T17:54:30.431Z,2.57
2023-01-21T17:57:01.855Z,2.45
2023-01-21T17:59:38.246Z,3.38
2023-01-21T18:02:18.243Z,3.03
2023-01-21T18:04:48.839Z,2.88
2023-01-21T18:07:27.701Z,2.28
2023-01-21T18:10:04.374Z,3.50
2023-01-21T18:12:37.756Z,2.92
2023-01-21T18:15:08.968Z,2.63
2023-01-21T18:17:38.892Z,2.70
2023-01-21T18:20:16.231Z,3.47
2023-01-21T18:22:45.533Z,3.33
2023-01-21T18:25:17.238Z,2.13
2023-01-21T18:27:47.265Z,2.83
2023-01-21T18:35:20.689Z,4.15
2023-01-21T18:37:50.626Z,2.70
2023-01-21T18:40:26.169Z,2.72
2023-01-21T18:43:10.168Z,2.75
2023-01-21T18:45:42.417Z,2.88
2023-01-21T18:48:14.699Z,2.55
2023-01-21T18:50:43.217Z,2.83
2023-01-21T18:53:13.709Z,3.13
2023-01-21T18:55:50.110Z,2.65
2023-01-21T18:58:18.839Z,2.83
2023-01-21T19:00:50.172Z,3.42
2023-01-21T19:03:24.208Z,2.03
2023-01-21T19:05:55.271Z,2.42
2023-01-21T19:08:27.698Z,2.58
2023-01-21T19:10:57.726Z,2.80
2023-01-21T19:13:26.267Z,3.33
2023-01-21T19:15:54.583Z,2.80
2023-01-21T19:18:25.093Z,2.67
2023-01-21T19:20:54.939Z,2.45
2023-01-21T19:23:24.640Z,3.17
2023-01-21T19:25:58.368Z,2.65
2023-01-21T19:28:29.239Z,3.42
2023-01-21T19:31:01.198Z,2.35
2023-01-21T19:33:29.922Z,2.70
2023-01-21T19:36:06.005Z,3.25
2023-01-21T19:38:38.583Z,2.10
2023-01-21T19:41:12.370Z,3.80
2023-01-21T19:43:41.256Z,4.05
2023-01-21T19:46:12.665Z,2.83
2023-01-21T19:48:42.139Z,2.90
2023-01-21T19:51:12.078Z,3.28
2023-01-21T19:53:40.395Z,3.92
2023-01-21T19:56:15.017Z,2.75
2023-01-21T19:58:43.533Z,3.15
2023-01-21T20:01:12.804Z,3.50
2023-01-21T20:03:54.586Z,2.53
2023-01-21T20:06:29.943Z,2.85
2023-01-21T20:09:00.554Z,2.88
2023-01-21T20:11:30.337Z,3.75
2023-01-21T20:16:31.404Z,2.35
2023-01-21T20:19:02.341Z,2.70
2023-01-21T20:21:31.067Z,3.00
2023-01-21T20:23:59.906Z,3.30
2023-01-21T20:26:30.635Z,4.32
2023-01-21T20:29:03.852Z,3.53
2023-01-21T20:31:35.390Z,3.83
2023-01-21T20:34:08.850Z,2.95
2023-01-21T20:36:40.986Z,5.13
2023-01-21T20:39:15.004Z,4.15
2023-01-21T20:41:46.983Z,3.80
2023-01-21T20:44:15.697Z,4.20
2023-01-21T20:46:47.210Z,4.35
2023-01-21T20:49:16.788Z,3.70
2023-01-21T20:51:47.659Z,4.07
2023-01-21T20:54:16.967Z,3.67
2023-01-21T20:56:49.940Z,3.47
2023-01-21T20:59:19.761Z,5.25
2023-01-21T21:01:51.581Z,4.38
2023-01-21T21:04:22.614Z,3.80
2023-01-21T21:06:51.144Z,4.15
2023-01-21T21:09:21.903Z,3.58
2023-01-21T21:11:52.477Z,5.00
2023-01-21T21:14:25.628Z,3.78
2023-01-21T21:16:57.023Z,3.95
2023-01-21T21:19:25.356Z,4.65
2023-01-21T21:21:54.718Z,4.93
2023-01-21T21:24:31.135Z,4.63
2023-01-21T21:27:07.988Z,5.47
2023-01-21T21:29:37.683Z,5.38
2023-01-21T21:32:13.937Z,4.75
2023-01-21T21:34:45.102Z,5.10
2023-01-21T21:37:14.442Z,6.47
2023-01-21T21:39:45.883Z,4.95
2023-01-21T21:42:34.520Z,5.22
2023-01-21T21:45:12.052Z,4.80
2023-01-21T21:47:58.010Z,5.43
2023-01-21T21:50:26.777Z,4.65
2023-01-21T21:52:55.347Z,4.82
2023-01-21T21:55:26.590Z,5.10
2023-01-21T21:57:58.477Z,4.68
2023-01-21T22:00:31.708Z,4.72
2023-01-21T22:03:05.542Z,4.32
2023-01-21T22:05:36.518Z,4.22
2023-01-21T22:08:05.390Z,5.93
2023-01-21T22:10:34.014Z,4.32
2023-01-21T22:13:04.188Z,4.28
2023-01-21T22:15:33.911Z,5.32
2023-01-21T22:18:02.225Z,4.82
2023-01-21T22:20:30.762Z,5.13
2023-01-21T22:23:01.635Z,4.25
2023-01-21T22:25:30.312Z,5.07
2023-01-21T22:28:00.381Z,4.70
2023-01-21T22:30:30.531Z,5.03
2023-01-21T22:35:32.202Z,4.40
2023-01-21T22:38:00.373Z,4.18
2023-01-21T22:40:31.863Z,4.47
2023-01-21T22:43:00.866Z,3.15
2023-01-21T22:45:33.510Z,4.00
2023-01-21T22:48:03.710Z,4.03
2023-01-21T22:50:32.872Z,4.40
2023-01-21T22:53:02.435Z,2.90
2023-01-21T22:55:35.473Z,2.85
2023-01-21T22:58:04.225Z,3.25
2023-01-21T23:00:38.707Z,3.65
2023-01-21T23:03:08.587Z,4.10
2023-01-21T23:05:37.381Z,3.53
2023-01-21T23:08:07.062Z,2.40
2023-01-21T23:10:35.745Z,4.70
2023-01-21T23:13:07.095Z,3.97
2023-01-21T23:15:37.663Z,2.67
2023-01-21T23:18:07.126Z,3.92
2023-01-21T23:20:37.204Z,3.80
2023-01-21T23:23:06.007Z,3.63
2023-01-21T23:25:34.450Z,2.85
2023-01-21T23:28:02.832Z,3.42
2023-01-21T23:30:31.422Z,3.05
2023-01-21T23:33:01.309Z,3.83
2023-01-21T23:35:31.543Z,3.35
2023-01-21T23:38:07.423Z,3.55
2023-01-21T23:40:48.618Z,3.03
2023-01-21T23:43:19.753Z,4.38
2023-01-21T23:45:50.330Z,2.75
2023-01-21T23:48:20.126Z,4.30
2023-01-21T23:50:49.076Z,4.70
2023-01-21T23:53:17.887Z,5.45
2023-01-21T23:55:46.334Z,4.00
2023-01-21T23:58:16.527Z,3.33
